Time;durP1;ratioP1;P1;durP2;ratioP2;P2;SDS_P1;SDS_P2;PMS_P1;PMS_P2;Temp;Humidity;BMP_temperature;BMP_pressure;BME280_temperature;BME280_humidity;BME280_pressure;Samples;Min_cycle;Max_cycle;Signal;HPM_P1;HPM_P2
2022/04/08 00:00:23;;;;;;;52.75;24.95;;;;;;;7.44;68.83;97606.28;4971759;28;20074;-72
2022/04/08 00:02:50;;;;;;;52.15;24.77;;;;;;;7.43;68.78;97597.31;4970627;28;20149;-70
2022/04/08 00:05:16;;;;;;;56.45;22.90;;;;;;;7.43;68.46;97604.69;4971932;28;20055;-70
2022/04/08 00:07:43;;;;;;;57.45;25.17;;;;;;;7.42;68.44;97611.22;4972204;28;20055;-71
2022/04/08 00:10:11;;;;;;;57.58;24.75;;;;;;;7.41;67.96;97601.44;4953681;28;20051;-72
2022/04/08 00:12:38;;;;;;;55.47;25.20;;;;;;;7.42;67.89;97601.13;4969963;28;20062;-72
2022/04/08 00:15:05;;;;;;;50.78;22.73;;;;;;;7.41;67.66;97607.69;4944982;28;20062;-70
2022/04/08 00:17:31;;;;;;;47.53;23.50;;;;;;;7.41;67.38;97606.88;4958033;28;20094;-72
2022/04/08 00:19:57;;;;;;;48.95;22.65;;;;;;;7.40;67.42;97597.09;4963417;28;20061;-72
2022/04/08 00:22:24;;;;;;;51.17;22.55;;;;;;;7.36;67.33;97605.88;4948975;28;20046;-74
2022/04/08 00:24:50;;;;;;;48.42;21.30;;;;;;;7.36;67.19;97599.66;4972860;28;20085;-74
2022/04/08 00:27:17;;;;;;;49.42;22.52;;;;;;;7.36;66.92;97595.00;4956663;28;20057;-73
2022/04/08 00:29:43;;;;;;;48.23;22.60;;;;;;;7.40;66.75;97597.09;4973014;28;20072;-74
2022/04/08 00:32:10;;;;;;;49.05;21.90;;;;;;;7.42;66.65;97608.50;4969422;28;20055;-74
2022/04/08 00:34:36;;;;;;;53.47;24.65;;;;;;;7.38;66.32;97584.63;4964161;28;20059;-73
2022/04/08 00:37:03;;;;;;;43.65;20.65;;;;;;;7.39;66.57;97612.63;4972144;28;20173;-73
2022/04/08 00:39:29;;;;;;;49.65;21.38;;;;;;;7.36;66.34;97608.59;4971482;28;20125;-73
2022/04/08 00:41:58;;;;;;;40.70;20.50;;;;;;;7.38;66.17;97605.59;4967966;28;20155;-73
2022/04/08 00:44:26;;;;;;;41.83;20.00;;;;;;;7.34;66.07;97604.59;4965937;28;20050;-72
2022/04/08 00:46:52;;;;;;;59.22;23.00;;;;;;;7.34;65.81;97602.69;4937293;28;20401;-73
2022/04/08 00:49:19;;;;;;;48.25;20.83;;;;;;;7.35;65.82;97615.16;4972517;28;20098;-73
2022/04/08 00:51:46;;;;;;;49.75;19.88;;;;;;;7.33;65.82;97611.13;4952342;28;20105;-74
2022/04/08 00:54:12;;;;;;;42.20;19.25;;;;;;;7.32;65.64;97613.06;4955216;28;20069;-74
2022/04/08 00:56:39;;;;;;;49.78;20.70;;;;;;;7.32;65.58;97612.25;4952363;28;20062;-73
2022/04/08 00:59:06;;;;;;;39.35;18.75;;;;;;;7.26;65.45;97589.81;4956438;28;20361;-74
2022/04/08 01:01:33;;;;;;;37.63;19.70;;;;;;;7.32;65.40;97598.66;4965164;28;20237;-74
2022/04/08 01:03:59;;;;;;;40.47;18.88;;;;;;;7.33;65.21;97616.56;4971744;28;20066;-73
2022/04/08 01:06:26;;;;;;;41.80;18.73;;;;;;;7.27;65.08;97601.50;4968690;28;20057;-74
2022/04/08 01:08:53;;;;;;;34.15;18.10;;;;;;;7.31;65.02;97607.91;4965862;28;20054;-73
2022/04/08 01:11:19;;;;;;;35.38;19.27;;;;;;;7.28;64.97;97608.53;4954247;28;20057;-74
2022/04/08 01:13:46;;;;;;;38.50;19.10;;;;;;;7.29;64.98;97597.38;4939013;28;20055;-74
2022/04/08 01:16:12;;;;;;;39.30;18.30;;;;;;;7.28;64.73;97594.94;4970895;28;20063;-74
2022/04/08 01:18:39;;;;;;;44.07;19.60;;;;;;;7.24;64.53;97602.91;4963878;28;20055;-74
2022/04/08 01:21:06;;;;;;;32.03;16.45;;;;;;;7.25;64.54;97599.06;4954572;28;20152;-74
2022/04/08 01:23:34;;;;;;;31.63;16.92;;;;;;;7.10;64.25;97570.34;4955252;28;20089;-74
2022/04/08 01:26:03;;;;;;;32.53;16.20;;;;;;;7.17;64.24;97576.13;4968220;28;20071;-74
2022/04/08 01:28:29;;;;;;;31.90;16.85;;;;;;;7.31;64.06;97614.16;4936931;28;20055;-74
2022/04/08 01:30:55;;;;;;;30.60;15.07;;;;;;;7.30;63.90;97587.28;4971756;28;20054;-73
2022/04/08 01:33:22;;;;;;;35.65;15.50;;;;;;;7.29;63.78;97599.25;4969298;28;20142;-73
2022/04/08 01:35:49;;;;;;;32.08;16.45;;;;;;;7.25;63.94;97590.91;4960713;28;20105;-76
2022/04/08 01:38:15;;;;;;;31.83;16.10;;;;;;;7.28;63.76;97605.81;4972286;28;20069;-77
2022/04/08 01:40:41;;;;;;;31.85;14.45;;;;;;;7.28;63.46;97608.53;4952853;28;20404;-76
2022/04/08 01:43:08;;;;;;;26.98;14.25;;;;;;;7.23;63.76;97591.25;4952280;28;20058;-76
2022/04/08 01:45:35;;;;;;;31.88;15.23;;;;;;;7.26;63.56;97599.88;4970079;28;20061;-76
2022/04/08 01:48:03;;;;;;;33.08;15.20;;;;;;;7.15;63.64;97585.72;4970282;28;20066;-76
2022/04/08 01:50:29;;;;;;;29.42;14.45;;;;;;;7.24;63.47;97600.19;4950441;28;20050;-74
2022/04/08 01:52:55;;;;;;;32.13;13.82;;;;;;;7.22;63.67;97610.56;4971021;28;20512;-75
2022/04/08 01:55:22;;;;;;;30.70;14.15;;;;;;;7.20;63.61;97607.34;4950657;28;20073;-74
2022/04/08 01:57:48;;;;;;;33.30;15.18;;;;;;;7.19;63.37;97603.84;4965301;28;20054;-74
2022/04/08 02:00:16;;;;;;;27.45;13.13;;;;;;;7.19;63.25;97594.88;4968990;28;20075;-74
2022/04/08 02:02:42;;;;;;;30.83;14.43;;;;;;;7.15;63.40;97608.25;4952974;28;20054;-74
2022/04/08 02:05:09;;;;;;;24.80;13.05;;;;;;;6.94;63.30;97570.66;4971301;28;20744;-74
2022/04/08 02:07:35;;;;;;;28.15;12.88;;;;;;;7.15;63.08;97602.03;4965774;28;20077;-75
2022/04/08 02:10:01;;;;;;;26.25;11.60;;;;;;;7.14;63.01;97605.88;4953865;28;20066;-73
2022/04/08 02:12:29;;;;;;;23.73;12.00;;;;;;;7.12;62.90;97605.38;4948310;28;20061;-74
2022/04/08 02:14:55;;;;;;;27.27;12.48;;;;;;;7.11;63.04;97606.47;4938057;28;20051;-73
2022/04/08 02:17:25;;;;;;;27.05;12.02;;;;;;;7.11;62.88;97596.41;4971220;28;20054;-73
2022/04/08 02:19:52;;;;;;;27.58;12.80;;;;;;;7.12;62.72;97603.44;4953449;28;20059;-72
2022/04/08 02:22:20;;;;;;;24.17;11.93;;;;;;;7.08;62.63;97599.72;4932598;28;20489;-73
2022/04/08 02:24:47;;;;;;;;;;;;;;;7.11;62.66;97607.25;4946692;28;20310;-73
2022/04/08 02:27:13;;;;;;;24.25;11.95;;;;;;;7.08;62.43;97607.88;4971051;28;19926;-73
2022/04/08 02:29:39;;;;;;;23.52;11.38;;;;;;;7.08;62.51;97608.66;4941130;28;20090;-73
2022/04/08 02:32:06;;;;;;;26.27;10.98;;;;;;;7.05;62.44;97611.22;4967245;28;20542;-73
2022/04/08 02:34:36;;;;;;;22.70;11.07;;;;;;;6.99;62.68;97606.97;4953409;28;20466;-72
2022/04/08 02:37:03;;;;;;;27.48;11.57;;;;;;;7.01;62.50;97594.72;4937879;28;20519;-73
2022/04/08 02:39:29;;;;;;;17.90;10.23;;;;;;;7.07;61.92;97615.22;4945437;28;20055;-75
2022/04/08 02:41:57;;;;;;;26.13;10.23;;;;;;;7.02;61.92;97590.88;4957213;28;20059;-76
2022/04/08 02:44:23;;;;;;;21.92;10.52;;;;;;;7.04;61.95;97617.75;4954327;28;20082;-76
2022/04/08 02:46:49;;;;;;;21.08;10.20;;;;;;;7.09;61.83;97614.94;4953911;28;20138;-76
2022/04/08 02:49:16;;;;;;;21.08;10.15;;;;;;;7.06;61.65;97601.94;4966591;28;20051;-76
2022/04/08 02:51:43;;;;;;;34.53;11.65;;;;;;;7.06;61.53;97604.66;4970363;28;20513;-76
2022/04/08 02:54:11;;;;;;;19.77;9.35;;;;;;;7.09;61.52;97612.22;4952728;28;20066;-76
2022/04/08 02:56:41;;;;;;;18.35;9.45;;;;;;;6.91;61.46;97579.44;4968052;28;20157;-76
2022/04/08 02:59:07;;;;;;;22.92;9.98;;;;;;;7.05;61.46;97625.59;4962347;28;20400;-76
2022/04/08 03:01:33;;;;;;;32.50;9.88;;;;;;;7.04;61.39;97612.31;4956635;28;20059;-76
2022/04/08 03:04:00;;;;;;;24.88;10.75;;;;;;;7.03;60.96;97618.88;4955334;28;20062;-76
2022/04/08 03:06:26;;;;;;;22.25;9.20;;;;;;;7.05;61.16;97628.31;4933524;28;20069;-76
2022/04/08 03:08:53;;;;;;;19.38;9.48;;;;;;;7.05;61.10;97619.38;4967875;28;20163;-75
2022/04/08 03:11:20;;;;;;;21.27;10.32;;;;;;;6.94;60.92;97597.84;4967117;28;20451;-75
2022/04/08 03:13:46;;;;;;;20.63;9.50;;;;;;;7.03;60.86;97614.22;4942125;29;20106;-76
2022/04/08 03:16:12;;;;;;;19.02;9.68;;;;;;;6.99;60.94;97613.25;4951080;28;20430;-75
2022/04/08 03:18:39;;;;;;;18.00;8.27;;;;;;;7.05;60.66;97627.53;4969016;28;20070;-76
2022/04/08 03:21:05;;;;;;;19.23;8.55;;;;;;;7.07;60.76;97614.44;4968435;28;20051;-75
2022/04/08 03:23:32;;;;;;;19.17;8.60;;;;;;;7.08;60.58;97613.31;4937494;28;20047;-77
2022/04/08 03:25:59;;;;;;;20.95;8.77;;;;;;;7.10;60.47;97613.81;4935413;28;20579;-77
2022/04/08 03:28:25;;;;;;;19.67;8.50;;;;;;;7.09;60.38;97610.28;4968676;28;20055;-76
2022/04/08 03:30:52;;;;;;;17.45;8.75;;;;;;;7.05;60.21;97622.09;4952940;28;20110;-77
2022/04/08 03:33:18;;;;;;;19.48;8.20;;;;;;;7.03;60.08;97616.16;4960861;28;20055;-76
2022/04/08 03:35:44;;;;;;;23.00;8.57;;;;;;;7.06;60.00;97612.81;4947974;28;20054;-76
2022/04/08 03:38:10;;;;;;;17.83;8.60;;;;;;;7.08;60.15;97622.25;4967460;28;20528;-76
2022/04/08 03:40:37;;;;;;;20.90;8.40;;;;;;;7.12;59.84;97625.19;4969076;28;20059;-75
2022/04/08 03:43:04;;;;;;;19.63;9.25;;;;;;;7.13;59.62;97618.63;4950438;28;20066;-76
2022/04/08 03:45:30;;;;;;;19.73;9.20;;;;;;;7.14;59.53;97614.00;4952526;28;20153;-76
2022/04/08 03:47:56;;;;;;;21.42;9.10;;;;;;;7.14;59.83;97620.25;4967879;28;20050;-76
2022/04/08 03:50:23;;;;;;;19.95;8.80;;;;;;;7.11;59.47;97615.41;4953240;28;20459;-75
2022/04/08 03:52:50;;;;;;;17.77;8.65;;;;;;;7.15;59.23;97610.97;4944626;28;20055;-76
2022/04/08 03:55:17;;;;;;;17.48;8.43;;;;;;;7.23;58.97;97634.72;4953695;28;20062;-75
2022/04/08 03:57:43;;;;;;;17.38;9.02;;;;;;;7.21;58.85;97628.78;4972007;28;20062;-76
2022/04/08 04:00:11;;;;;;;19.85;9.13;;;;;;;7.29;58.75;97631.88;4986532;28;20058;-76
2022/04/08 04:02:37;;;;;;;15.57;8.15;;;;;;;7.30;58.58;97634.31;4972175;28;20110;-76
2022/04/08 04:05:04;;;;;;;18.05;7.63;;;;;;;7.33;58.19;97625.53;4971176;28;20086;-76
2022/04/08 04:07:32;;;;;;;19.48;7.65;;;;;;;7.32;58.07;97623.09;4935680;28;20051;-77
2022/04/08 04:09:59;;;;;;;16.35;7.03;;;;;;;7.43;57.80;97618.28;4970380;28;20520;-77
2022/04/08 04:12:28;;;;;;;17.75;7.55;;;;;;;7.47;57.87;97628.19;4938621;28;20058;-76
2022/04/08 04:14:55;;;;;;;15.60;7.40;;;;;;;7.45;57.74;97605.16;4953959;28;20067;-76
2022/04/08 04:17:22;;;;;;;21.83;8.20;;;;;;;7.56;57.40;97636.44;4972903;28;20054;-76
2022/04/08 04:19:50;;;;;;;18.50;7.70;;;;;;;7.59;57.31;97626.84;4941773;28;20054;-76
2022/04/08 04:22:16;;;;;;;15.27;7.35;;;;;;;7.59;57.02;97621.41;4962431;28;20113;-76
2022/04/08 04:24:43;;;;;;;19.67;7.20;;;;;;;7.53;57.10;97609.84;4955532;28;20054;-75
2022/04/08 04:27:09;;;;;;;23.17;7.78;;;;;;;7.65;56.95;97615.56;4971789;28;20141;-77
2022/04/08 04:29:36;;;;;;;14.98;7.05;;;;;;;7.71;56.69;97627.13;4954220;28;20073;-76
2022/04/08 04:32:03;;;;;;;18.13;7.93;;;;;;;7.74;56.47;97629.22;4938382;28;20504;-78
2022/04/08 04:34:30;;;;;;;;;;;;;;;7.78;56.31;97629.41;4946297;28;20078;-78
2022/04/08 04:36:56;;;;;;;26.27;7.37;;;;;;;7.78;56.30;97632.13;4938801;28;20317;-78
2022/04/08 04:39:22;;;;;;;15.98;6.82;;;;;;;7.79;56.20;97628.28;4954139;28;20046;-79
2022/04/08 04:41:48;;;;;;;20.52;7.43;;;;;;;7.85;55.97;97623.53;4938854;28;20058;-77
2022/04/08 04:44:14;;;;;;;19.33;7.03;;;;;;;7.87;55.74;97624.03;4955064;28;20047;-78
2022/04/08 04:46:43;;;;;;;20.63;6.88;;;;;;;7.88;55.66;97626.44;4938349;28;20066;-79
2022/04/08 04:49:10;;;;;;;17.42;6.70;;;;;;;7.92;55.55;97632.03;4969354;28;21757;-78
2022/04/08 04:51:36;;;;;;;19.03;6.23;;;;;;;7.93;55.37;97614.59;4969673;28;20138;-78
2022/04/08 04:54:03;;;;;;;13.32;6.40;;;;;;;7.97;55.34;97620.25;4967803;28;20526;-80
2022/04/08 04:56:29;;;;;;;18.75;6.75;;;;;;;7.91;55.39;97625.81;4950386;28;20141;-80
2022/04/08 04:58:56;;;;;;;21.98;6.30;;;;;;;8.00;55.10;97620.44;4938503;28;20046;-79
2022/04/08 05:01:22;;;;;;;19.27;6.93;;;;;;;8.03;55.09;97621.69;4973829;28;20052;-75
2022/04/08 05:03:49;;;;;;;17.08;7.32;;;;;;;8.07;54.94;97628.16;4972190;28;20081;-78
2022/04/08 05:06:15;;;;;;;25.65;7.00;;;;;;;8.06;54.88;97618.38;4970891;28;20058;-77
2022/04/08 05:08:42;;;;;;;21.60;6.60;;;;;;;8.03;54.54;97614.34;4971856;28;20125;-77
2022/04/08 05:11:10;;;;;;;14.35;6.05;;;;;;;8.13;54.34;97618.72;4954605;28;20059;-77
2022/04/08 05:13:36;;;;;;;23.02;7.05;;;;;;;8.18;54.29;97606.91;4953330;28;20529;-77
2022/04/08 05:16:03;;;;;;;16.00;6.47;;;;;;;8.23;54.19;97631.28;4969253;28;20047;-80
2022/04/08 05:18:29;;;;;;;14.37;6.43;;;;;;;8.25;53.92;97618.16;4969074;28;20077;-78
2022/04/08 05:20:56;;;;;;;15.98;6.93;;;;;;;8.28;53.89;97614.00;4971480;28;20049;-78
2022/04/08 05:23:25;;;;;;;20.13;7.40;;;;;;;8.30;53.67;97618.03;4968379;28;20066;-78
2022/04/08 05:25:52;;;;;;;26.63;7.30;;;;;;;8.32;53.79;97618.50;4969945;28;20444;-78
2022/04/08 05:28:19;;;;;;;18.75;7.35;;;;;;;8.36;53.68;97626.88;4970697;28;20051;-79
2022/04/08 05:30:46;;;;;;;20.85;8.23;;;;;;;8.39;53.61;97626.22;4938902;28;20082;-78
2022/04/08 05:33:14;;;;;;;23.63;8.35;;;;;;;8.35;53.63;97596.09;4937454;28;20314;-78
2022/04/08 05:35:40;;;;;;;28.02;8.40;;;;;;;8.48;53.35;97618.09;4969050;28;20458;-79
2022/04/08 05:38:07;;;;;;;17.42;8.43;;;;;;;8.31;53.40;97588.88;4950781;28;20055;-78
2022/04/08 05:49:31;;;;;;;22.42;7.60;;;;;;;8.79;52.75;97620.78;4860226;28;20109;-74
2022/04/08 05:51:57;;;;;;;21.17;7.53;;;;;;;8.83;52.52;97606.56;4966590;28;20188;-73
2022/04/08 05:54:23;;;;;;;25.00;8.18;;;;;;;8.87;52.45;97623.88;4950245;28;20463;-74
2022/04/08 05:56:51;;;;;;;19.83;8.48;;;;;;;8.82;52.06;97611.19;4968316;28;20055;-76
2022/04/08 05:59:17;;;;;;;23.45;8.00;;;;;;;8.97;52.03;97614.59;4942817;28;20090;-74
2022/04/08 06:01:43;;;;;;;19.10;8.50;;;;;;;9.05;51.85;97611.06;4966562;28;20043;-74
2022/04/08 06:04:10;;;;;;;30.38;10.80;;;;;;;9.13;51.75;97607.56;4969524;28;20567;-76
2022/04/08 06:06:38;;;;;;;26.13;8.43;;;;;;;9.20;51.63;97626.19;4951193;29;20551;-76
2022/04/08 06:09:07;;;;;;;24.73;8.20;;;;;;;9.26;51.32;97624.09;4969926;28;20059;-77
2022/04/08 06:11:34;;;;;;;23.75;8.10;;;;;;;9.33;50.92;97608.88;4948944;28;20046;-75
2022/04/08 06:14:01;;;;;;;26.92;8.52;;;;;;;9.42;50.76;97616.25;4940585;28;20055;-72
2022/04/08 06:16:28;;;;;;;24.42;8.23;;;;;;;9.48;50.65;97623.16;4967384;28;20057;-71
2022/04/08 06:18:55;;;;;;;25.77;8.73;;;;;;;9.53;50.17;97633.91;4969442;28;20046;-70
2022/04/08 06:21:22;;;;;;;20.85;7.88;;;;;;;9.59;49.92;97626.34;4965604;28;20455;-70
2022/04/08 06:23:49;;;;;;;21.23;8.60;;;;;;;9.62;49.83;97621.06;4970869;28;20059;-70
2022/04/08 06:26:15;;;;;;;;;;;;;;;9.67;49.66;97643.84;4945013;29;20539;-69
2022/04/08 06:28:42;;;;;;;24.88;8.95;;;;;;;9.71;49.53;97633.88;4962964;28;19944;-68
2022/04/08 06:31:08;;;;;;;25.85;8.70;;;;;;;9.74;49.57;97623.16;4967526;28;20055;-68
2022/04/08 06:33:34;;;;;;;28.92;8.93;;;;;;;9.80;49.33;97621.06;4936337;28;20061;-68
2022/04/08 06:36:00;;;;;;;26.10;8.55;;;;;;;9.85;49.28;97633.75;4969965;28;20154;-70
2022/04/08 06:38:27;;;;;;;28.92;9.73;;;;;;;9.89;49.17;97627.28;4969072;28;20332;-68
2022/04/08 06:40:53;;;;;;;28.25;10.13;;;;;;;9.92;49.17;97621.19;4965372;28;20246;-68
2022/04/08 06:43:19;;;;;;;28.48;9.32;;;;;;;9.96;49.06;97618.59;4943854;28;20129;-69
2022/04/08 06:45:45;;;;;;;31.30;10.35;;;;;;;9.97;48.89;97631.13;4961649;28;20067;-68
2022/04/08 06:48:12;;;;;;;25.88;10.40;;;;;;;9.96;48.97;97615.09;4971301;28;20145;-70
2022/04/08 06:50:39;;;;;;;29.08;9.45;;;;;;;10.00;48.76;97614.13;4939969;28;20054;-74
2022/04/08 06:53:05;;;;;;;27.58;9.70;;;;;;;10.01;48.61;97610.25;4971214;28;20404;-69
2022/04/08 06:55:33;;;;;;;30.85;10.73;;;;;;;10.11;48.40;97627.41;4953340;28;20050;-70
2022/04/08 06:58:02;;;;;;;34.15;9.73;;;;;;;10.12;48.34;97618.91;4948937;28;20086;-71
2022/04/08 07:00:32;;;;;;;31.95;11.30;;;;;;;10.19;48.09;97623.88;4955266;28;20058;-70
2022/04/08 07:02:58;;;;;;;30.38;10.85;;;;;;;10.21;48.13;97622.41;4952808;28;20531;-70
2022/04/08 07:05:25;;;;;;;36.58;10.90;;;;;;;10.23;47.71;97622.09;4966378;28;20234;-70
2022/04/08 07:07:51;;;;;;;33.37;10.43;;;;;;;10.28;47.89;97621.91;4965933;28;20141;-73
2022/04/08 07:10:17;;;;;;;29.30;11.35;;;;;;;10.32;47.52;97619.31;4969681;28;20338;-75
2022/04/08 07:12:43;;;;;;;26.95;10.27;;;;;;;10.28;46.97;97621.13;4949796;28;20055;-75
2022/04/08 07:15:11;;;;;;;30.45;10.65;;;;;;;10.37;47.14;97621.88;4968729;28;20574;-75
2022/04/08 07:17:37;;;;;;;35.63;11.40;;;;;;;10.40;47.19;97617.69;4935094;28;20065;-73
2022/04/08 07:20:05;;;;;;;32.97;11.10;;;;;;;10.40;47.12;97620.44;4968545;28;20055;-73
2022/04/08 07:22:32;;;;;;;32.95;11.75;;;;;;;10.44;47.29;97635.88;4970707;28;20063;-73
2022/04/08 07:24:58;;;;;;;40.45;12.82;;;;;;;10.44;47.40;97624.94;4951967;28;20066;-72
2022/04/08 07:27:31;;;;;;;32.88;11.30;;;;;;;10.42;47.26;97626.38;4973791;28;20051;-83
2022/04/08 07:29:57;;;;;;;29.55;10.88;;;;;;;10.47;46.61;97648.88;4938123;28;20059;-76
2022/04/08 07:32:24;;;;;;;33.15;11.98;;;;;;;10.40;46.12;97636.81;4968471;28;20062;-76
2022/04/08 07:34:51;;;;;;;32.63;11.20;;;;;;;10.49;46.37;97643.09;4973306;28;20050;-77
2022/04/08 07:37:27;;;;;;;29.02;10.77;;;;;;;10.53;46.51;97635.03;4933464;28;20054;-80
2022/04/08 07:39:53;;;;;;;26.90;11.13;;;;;;;10.56;46.58;97637.91;4937795;28;20055;-79
2022/04/08 07:42:19;;;;;;;26.17;10.88;;;;;;;10.53;46.63;97635.03;4972139;28;20058;-79
2022/04/08 07:44:46;;;;;;;33.50;11.88;;;;;;;10.60;46.41;97636.13;4956266;28;20097;-79
2022/04/08 07:47:12;;;;;;;25.48;11.85;;;;;;;10.63;46.78;97630.03;4971798;28;20606;-78
2022/04/08 07:49:39;;;;;;;23.90;9.90;;;;;;;10.64;46.71;97636.28;4963486;28;20050;-79
2022/04/08 07:52:06;;;;;;;26.67;10.43;;;;;;;10.67;46.58;97632.09;4948627;28;20543;-79
2022/04/08 07:54:35;;;;;;;28.63;10.63;;;;;;;10.75;46.69;97631.22;4958855;28;20480;-80
2022/04/08 07:57:02;;;;;;;22.17;9.90;;;;;;;10.78;46.52;97628.66;4959634;28;20051;-79
2022/04/08 07:59:31;;;;;;;23.07;9.50;;;;;;;10.83;46.52;97635.06;4953403;28;20073;-76
2022/04/08 08:01:57;;;;;;;27.83;10.05;;;;;;;10.84;46.85;97628.47;4965310;28;20064;-77
2022/04/08 08:04:24;;;;;;;22.40;9.95;;;;;;;10.90;46.80;97632.63;4955129;29;20055;-79
2022/04/08 08:06:50;;;;;;;40.35;11.50;;;;;;;10.91;46.16;97615.88;4931223;28;20059;-77
2022/04/08 08:09:22;;;;;;;32.27;11.90;;;;;;;10.94;46.07;97630.81;4938425;28;20062;-73
2022/04/08 08:11:49;;;;;;;38.28;12.13;;;;;;;11.01;45.21;97649.44;4937480;28;20368;-78
2022/04/08 08:14:15;;;;;;;46.45;12.68;;;;;;;11.05;45.62;97629.31;4955027;28;20121;-74
2022/04/08 08:16:42;;;;;;;30.40;11.90;;;;;;;11.06;45.05;97633.66;4962585;28;20139;-73
2022/04/08 08:19:09;;;;;;;29.90;12.07;;;;;;;11.14;45.04;97618.31;4940626;28;20662;-73
2022/04/08 08:21:36;;;;;;;33.90;13.93;;;;;;;11.17;45.06;97630.53;4955202;28;20490;-74
2022/04/08 08:24:04;;;;;;;42.10;15.77;;;;;;;11.20;44.97;97630.66;4956469;28;20574;-74
2022/04/08 08:26:31;;;;;;;32.40;13.02;;;;;;;11.23;44.64;97625.66;4960562;28;20046;-75
2022/04/08 08:28:58;;;;;;;32.40;14.32;;;;;;;11.17;43.82;97622.34;4969286;28;20113;-75
2022/04/08 08:31:24;;;;;;;27.35;13.43;;;;;;;11.20;44.03;97608.78;4969529;28;20059;-72
2022/04/08 08:33:51;;;;;;;33.92;14.00;;;;;;;11.29;43.81;97616.13;4971728;28;20086;-73
2022/04/08 08:36:17;;;;;;;35.78;14.30;;;;;;;11.33;43.73;97611.59;4946844;28;20066;-72
2022/04/08 08:38:44;;;;;;;46.70;15.75;;;;;;;11.40;43.92;97614.63;4969137;28;20135;-73
2022/04/08 08:41:12;;;;;;;50.10;16.50;;;;;;;11.43;43.36;97624.88;4969086;28;20046;-72
2022/04/08 08:43:37;;;;;;;;;;;;;;;11.45;42.84;97624.53;4971401;28;20145;-72
2022/04/08 08:46:05;;;;;;;44.63;15.32;;;;;;;11.46;43.48;97605.06;4970606;28;20013;-72
2022/04/08 08:48:34;;;;;;;34.97;14.55;;;;;;;11.45;43.41;97606.19;4970219;28;20515;-73
2022/04/08 08:51:02;;;;;;;35.75;15.95;;;;;;;11.51;43.38;97612.28;4952276;28;20582;-71
2022/04/08 08:53:29;;;;;;;37.72;15.30;;;;;;;11.51;42.58;97605.97;4954720;28;20512;-72
2022/04/08 08:55:56;;;;;;;35.60;14.93;;;;;;;11.55;42.59;97593.22;4970714;28;20058;-72
2022/04/08 08:58:23;;;;;;;50.50;15.95;;;;;;;11.55;42.23;97598.69;4970329;28;20542;-79
2022/04/08 09:00:50;;;;;;;45.17;15.82;;;;;;;11.65;42.23;97601.03;4951346;28;20050;-80
2022/04/08 09:03:17;;;;;;;48.83;16.75;;;;;;;11.66;42.42;97586.22;4970159;28;20055;-79
2022/04/08 09:05:46;;;;;;;40.03;15.32;;;;;;;11.69;41.80;97587.47;4969806;28;20117;-76
2022/04/08 09:08:13;;;;;;;43.38;16.38;;;;;;;11.69;41.97;97592.97;4970340;28;20067;-75
2022/04/08 09:10:43;;;;;;;43.13;16.63;;;;;;;11.71;42.36;97571.53;4971941;28;20054;-78
2022/04/08 09:13:10;;;;;;;47.17;16.13;;;;;;;11.71;41.79;97591.50;4971324;28;20058;-77
2022/04/08 09:15:40;;;;;;;42.22;15.48;;;;;;;11.72;41.32;97584.06;4971110;28;20059;-77
2022/04/08 09:18:08;;;;;;;31.10;14.75;;;;;;;11.72;41.19;97582.16;4968331;28;20055;-77
2022/04/08 09:20:39;;;;;;;38.85;16.55;;;;;;;11.79;41.67;97576.13;4961962;28;20585;-77
2022/04/08 09:23:07;;;;;;;46.13;14.68;;;;;;;11.81;41.27;97553.88;4970178;28;20082;-76
2022/04/08 09:25:34;;;;;;;42.95;14.95;;;;;;;11.82;41.20;97569.97;4970249;28;20054;-78
2022/04/08 09:28:05;;;;;;;35.10;15.47;;;;;;;11.75;40.74;97565.03;4971419;28;20078;-77
2022/04/08 09:30:32;;;;;;;65.18;13.88;;;;;;;11.79;40.51;97567.91;4975008;28;20062;-77
2022/04/08 09:33:09;;;;;;;43.08;14.63;;;;;;;11.78;40.44;97579.97;4951329;28;20051;-76
2022/04/08 09:35:39;;;;;;;33.38;13.55;;;;;;;11.84;40.74;97586.03;4959943;28;20039;-76
2022/04/08 09:38:06;;;;;;;30.77;11.98;;;;;;;11.70;40.30;97564.44;4971786;28;20097;-76
2022/04/08 09:40:37;;;;;;;37.03;13.52;;;;;;;11.82;40.51;97556.28;4945492;28;20507;-76
2022/04/08 09:43:04;;;;;;;31.98;14.50;;;;;;;11.81;40.28;97551.94;4970238;28;20065;-77
2022/04/08 09:45:30;;;;;;;28.52;12.82;;;;;;;11.84;40.23;97570.44;4970744;28;20066;-76
2022/04/08 09:47:57;;;;;;;34.67;13.35;;;;;;;11.89;40.38;97569.41;4972537;28;20142;-76
2022/04/08 09:50:24;;;;;;;48.53;15.90;;;;;;;11.94;40.54;97563.72;4934168;28;20055;-77
2022/04/08 09:52:51;;;;;;;40.58;15.85;;;;;;;12.00;41.00;97570.56;4953338;28;20101;-77
2022/04/08 09:55:17;;;;;;;33.87;14.10;;;;;;;12.04;40.88;97568.00;4970146;28;20523;-77
2022/04/08 09:57:46;;;;;;;33.03;12.85;;;;;;;12.05;40.59;97564.94;4955203;28;20306;-76
2022/04/08 10:00:15;;;;;;;54.70;14.50;;;;;;;12.06;41.04;97560.22;4954976;28;20061;-76
2022/04/08 10:02:48;;;;;;;38.30;13.18;;;;;;;12.07;41.52;97559.09;4936635;28;20141;-78
2022/04/08 10:05:16;;;;;;;35.85;13.10;;;;;;;12.06;41.74;97573.94;4938055;28;20059;-77
2022/04/08 10:07:45;;;;;;;31.83;12.20;;;;;;;12.05;41.69;97564.94;4946914;28;20053;-77
2022/04/08 10:10:18;;;;;;;29.25;13.10;;;;;;;12.05;41.42;97553.16;4967244;28;20055;-78
2022/04/08 10:13:04;;;;;;;28.33;13.52;;;;;;;12.03;41.41;97556.25;4966844;28;20141;-80
2022/04/08 10:15:35;;;;;;;35.63;14.27;;;;;;;12.07;41.56;97567.31;4965524;28;20058;-78
2022/04/08 10:18:04;;;;;;;35.08;14.75;;;;;;;12.15;41.46;97563.69;4935046;28;20062;-78
2022/04/08 10:20:32;;;;;;;32.03;15.27;;;;;;;12.29;41.42;97552.38;4962349;28;20062;-79
2022/04/08 10:23:08;;;;;;;40.55;16.48;;;;;;;12.29;41.47;97557.09;4963713;28;20697;-78
2022/04/08 10:25:39;;;;;;;36.17;14.75;;;;;;;12.36;41.84;97540.09;4966932;28;20050;-78
2022/04/08 10:28:05;;;;;;;32.03;14.88;;;;;;;12.42;41.56;97544.19;4968248;28;20153;-78
2022/04/08 10:30:36;;;;;;;41.05;16.85;;;;;;;12.48;42.07;97551.84;4946274;28;20051;-78
2022/04/08 10:33:06;;;;;;;36.40;14.57;;;;;;;12.57;41.87;97545.47;4968432;28;20078;-78
2022/04/08 10:35:32;;;;;;;37.13;14.48;;;;;;;12.63;42.37;97533.88;4975355;28;20510;-78
2022/04/08 10:38:00;;;;;;;35.00;14.68;;;;;;;12.70;41.94;97551.72;4940577;28;20061;-81
2022/04/08 10:40:32;;;;;;;39.72;15.77;;;;;;;12.66;42.17;97537.91;4929662;28;20066;-81
2022/04/08 10:43:00;;;;;;;39.92;16.10;;;;;;;12.81;41.98;97563.84;4960512;28;20518;-82
2022/04/08 10:45:27;;;;;;;35.92;16.50;;;;;;;12.83;42.45;97553.31;4983233;28;20078;-81
2022/04/08 10:47:53;;;;;;;41.17;16.88;;;;;;;12.85;41.67;97566.66;4952766;28;20051;-73
2022/04/08 10:50:25;;;;;;;37.65;16.70;;;;;;;12.86;42.13;97565.50;4951372;28;20051;-78
2022/04/08 10:53:05;;;;;;;40.65;17.80;;;;;;;12.84;42.92;97543.94;4953188;28;20932;-79
2022/04/08 10:55:43;;;;;;;42.40;18.05;;;;;;;12.90;42.83;97556.25;4968686;28;20059;-79
2022/04/08 10:58:11;;;;;;;38.00;17.80;;;;;;;12.83;43.78;97542.34;4969134;28;20102;-79
2022/04/08 11:00:39;;;;;;;41.88;18.80;;;;;;;12.80;44.20;97536.75;4947545;28;20542;-81
2022/04/08 11:03:10;;;;;;;47.40;19.33;;;;;;;12.86;44.80;97519.72;4955796;28;20403;-82
2022/04/08 11:05:38;;;;;;;38.45;18.73;;;;;;;13.07;44.76;97542.66;4957601;28;20059;-81
2022/04/08 11:08:06;;;;;;;38.55;19.27;;;;;;;13.12;44.44;97528.69;4973405;28;20416;-78
2022/04/08 11:10:33;;;;;;;40.03;18.40;;;;;;;13.15;44.75;97515.06;4954687;28;20081;-78
2022/04/08 11:13:02;;;;;;;43.35;18.60;;;;;;;13.24;44.20;97505.88;4945535;28;20054;-78
2022/04/08 11:15:30;;;;;;;49.47;20.52;;;;;;;13.40;44.57;97530.66;4954786;28;20043;-77
2022/04/08 11:17:58;;;;;;;42.70;18.88;;;;;;;13.52;44.89;97525.16;4952223;28;20508;-79
2022/04/08 11:20:24;;;;;;;43.45;20.42;;;;;;;13.54;44.53;97524.78;4938308;29;20062;-78
2022/04/08 11:22:55;;;;;;;55.50;21.45;;;;;;;13.62;44.67;97523.84;4948011;28;20059;-78
2022/04/08 11:25:22;;;;;;;41.88;21.35;;;;;;;13.76;44.66;97542.63;4972545;28;20054;-79
2022/04/08 11:28:09;;;;;;;;;;;;;;;13.86;45.12;97525.66;4960505;28;20590;-78
2022/04/08 11:30:40;;;;;;;;;;;;;;;13.93;45.22;97511.31;4955489;29;19926;-78
2022/04/08 11:33:16;;;;;;;40.47;19.00;;;;;;;13.99;44.48;97520.09;4950984;28;20440;-77
2022/04/08 11:35:46;;;;;;;38.30;19.63;;;;;;;14.10;44.40;97515.66;4962430;28;20047;-78